Time;durP1;ratioP1;P1;durP2;ratioP2;P2;SDS_P1;SDS_P2;PMS_P1;PMS_P2;Temp;Humidity;BMP_temperature;BMP_pressure;BME280_temperature;BME280_humidity;BME280_pressure;Samples;Min_cycle;Max_cycle;Signal;HPM_P1;HPM_P2
2021/09/16 00:00:29;;;;;;;2.28;1.10;;;;;;;7.27;65.35;98384.47;5055728;28;20400;-75
2021/09/16 00:02:55;;;;;;;3.63;1.27;;;;;;;7.21;65.34;98376.16;5055997;28;20036;-74
2021/09/16 00:05:21;;;;;;;2.60;1.40;;;;;;;7.29;65.27;98384.34;5039004;28;20051;-75
2021/09/16 00:07:47;;;;;;;6.32;1.23;;;;;;;7.24;65.59;98389.19;5022703;28;20040;-74
2021/09/16 00:10:13;;;;;;;4.50;1.10;;;;;;;7.21;65.47;98378.81;5038549;28;20039;-74
2021/09/16 00:12:39;;;;;;;1.13;1.10;;;;;;;7.13;65.77;98386.56;5038893;28;20033;-74
2021/09/16 00:15:06;;;;;;;1.17;1.10;;;;;;;7.22;65.58;98386.69;5038948;28;20072;-75
2021/09/16 00:17:32;;;;;;;2.92;0.93;;;;;;;7.18;65.53;98379.88;5055311;28;20059;-75
2021/09/16 00:19:58;;;;;;;1.23;1.20;;;;;;;7.07;66.08;98385.25;5022927;28;20491;-74
2021/09/16 00:22:24;;;;;;;1.38;1.27;;;;;;;7.05;66.36;98385.38;5073119;28;20537;-76
2021/09/16 00:24:50;;;;;;;1.75;1.20;;;;;;;7.03;66.49;98381.13;5038720;28;20041;-75
2021/09/16 00:27:16;;;;;;;1.90;1.10;;;;;;;7.08;66.07;98384.28;5022333;28;20529;-75
2021/09/16 00:29:41;;;;;;;3.65;1.30;;;;;;;7.11;65.83;98388.50;5038426;28;20085;-75
2021/09/16 00:32:09;;;;;;;1.77;1.10;;;;;;;6.98;66.33;98384.19;5022254;28;20087;-74
2021/09/16 00:34:35;;;;;;;1.40;1.30;;;;;;;6.97;65.42;98371.88;5055428;28;20076;-73
2021/09/16 00:37:01;;;;;;;2.15;1.33;;;;;;;7.04;65.44;98382.84;5055370;28;20037;-74
2021/09/16 00:39:27;;;;;;;3.38;1.33;;;;;;;7.05;65.83;98392.50;5038709;28;20056;-74
2021/09/16 00:41:53;;;;;;;1.40;1.30;;;;;;;6.97;66.07;98394.94;5038931;28;20048;-74
2021/09/16 00:44:19;;;;;;;3.22;1.17;;;;;;;6.86;66.48;98393.13;5061351;28;20504;-74
2021/09/16 00:46:45;;;;;;;2.38;1.40;;;;;;;6.74;66.73;98394.13;5035058;28;20174;-75
2021/09/16 00:49:11;;;;;;;1.17;1.17;;;;;;;6.54;67.39;98383.28;5035045;28;20052;-74
2021/09/16 00:51:38;;;;;;;3.55;1.40;;;;;;;6.57;67.58;98388.31;5018597;28;20045;-74
2021/09/16 00:54:04;;;;;;;3.03;1.38;;;;;;;6.63;66.78;98383.50;5002580;28;20078;-74
2021/09/16 00:56:30;;;;;;;1.75;1.40;;;;;;;6.54;66.98;98385.06;5002572;28;20433;-74
2021/09/16 00:58:56;;;;;;;1.33;1.25;;;;;;;6.46;67.23;98382.16;5002239;28;20080;-75
2021/09/16 01:01:26;;;;;;;1.75;1.23;;;;;;;6.51;67.11;98388.81;5019720;28;20040;-76
2021/09/16 01:03:53;;;;;;;1.95;1.70;;;;;;;6.49;67.30;98388.06;5018622;28;20470;-74
2021/09/16 01:06:19;;;;;;;2.75;1.30;;;;;;;6.30;68.15;98387.84;5018934;28;20037;-75
2021/09/16 01:08:45;;;;;;;3.55;2.33;;;;;;;6.34;68.16;98394.59;5002589;28;20044;-74
2021/09/16 01:11:11;;;;;;;1.80;1.20;;;;;;;6.38;67.71;98390.72;4985967;28;20492;-74
2021/09/16 01:13:37;;;;;;;1.42;1.33;;;;;;;6.31;67.98;98394.81;5002037;28;20067;-75
2021/09/16 01:16:03;;;;;;;1.55;1.45;;;;;;;6.27;68.12;98394.22;5018926;28;20045;-76
2021/09/16 01:18:29;;;;;;;2.80;1.35;;;;;;;6.32;67.99;98407.16;4985764;28;20063;-75
2021/09/16 01:20:55;;;;;;;3.10;1.65;;;;;;;6.33;68.04;98409.69;5002279;28;20528;-74
2021/09/16 01:23:22;;;;;;;1.45;1.35;;;;;;;6.33;68.11;98414.13;5039075;28;20496;-74
2021/09/16 01:25:48;;;;;;;5.50;1.25;;;;;;;6.26;68.19;98404.97;4973712;28;20041;-75
2021/09/16 01:28:14;;;;;;;1.38;1.27;;;;;;;6.17;68.08;98403.00;4989515;28;20049;-74
2021/09/16 01:30:40;;;;;;;3.58;1.33;;;;;;;6.24;68.07;98406.88;4989999;28;20052;-76
2021/09/16 01:33:06;;;;;;;2.33;1.50;;;;;;;6.29;67.27;98413.53;5005722;28;20045;-75
2021/09/16 01:35:32;;;;;;;2.65;1.20;;;;;;;6.33;67.42;98416.78;5038481;28;20037;-74
2021/09/16 01:37:58;;;;;;;3.30;1.38;;;;;;;6.18;68.09;98415.31;5021913;28;20041;-76
2021/09/16 01:40:24;;;;;;;3.53;1.38;;;;;;;6.06;68.33;98411.81;5021934;28;20111;-74
2021/09/16 01:42:50;;;;;;;1.63;1.50;;;;;;;6.10;68.20;98415.91;5022192;28;20075;-76
2021/09/16 01:45:21;;;;;;;4.93;1.50;;;;;;;5.96;69.03;98421.41;5039469;28;20057;-76
2021/09/16 01:47:48;;;;;;;3.22;1.40;;;;;;;5.88;68.92;98413.16;5022017;28;20041;-74
2021/09/16 01:50:14;;;;;;;1.45;1.30;;;;;;;5.97;68.77;98423.09;5038279;28;20080;-74
2021/09/16 01:52:40;;;;;;;1.73;1.27;;;;;;;5.78;69.56;98416.50;5021577;28;20154;-75
2021/09/16 01:55:06;;;;;;;4.10;1.50;;;;;;;5.81;69.50;98423.38;5057972;28;20048;-75
2021/09/16 01:57:33;;;;;;;3.72;1.90;;;;;;;5.87;69.04;98436.19;5038055;28;20040;-76
2021/09/16 01:59:59;;;;;;;2.85;1.50;;;;;;;5.80;69.62;98424.34;5054823;28;20052;-76
2021/09/16 02:02:24;;;;;;;5.97;1.67;;;;;;;5.70;70.35;98420.69;5041556;28;20059;-76
2021/09/16 02:04:50;;;;;;;1.85;1.60;;;;;;;5.84;70.03;98439.06;5058074;28;20491;-76
2021/09/16 02:07:16;;;;;;;5.20;1.65;;;;;;;5.78;70.18;98432.41;5024840;28;20040;-77
2021/09/16 02:09:42;;;;;;;2.72;1.40;;;;;;;5.92;69.63;98435.84;5004790;28;20506;-76
2021/09/16 02:12:08;;;;;;;3.35;1.58;;;;;;;5.96;69.51;98437.34;5005910;28;20040;-76
2021/09/16 02:14:34;;;;;;;4.80;1.48;;;;;;;6.02;69.34;98436.88;5038127;28;20057;-76
2021/09/16 02:17:00;;;;;;;3.67;1.90;;;;;;;6.07;68.71;98446.16;5037815;28;20091;-75
2021/09/16 02:19:26;;;;;;;3.10;1.35;;;;;;;6.07;69.00;98446.16;5004893;28;20159;-76
2021/09/16 02:21:52;;;;;;;4.65;1.55;;;;;;;6.01;68.95;98445.78;5021018;28;20051;-77
2021/09/16 02:24:18;;;;;;;4.47;1.40;;;;;;;6.02;69.14;98447.50;5004456;28;20056;-75
2021/09/16 02:26:44;;;;;;;1.60;1.50;;;;;;;5.95;69.23;98449.75;5054921;28;20045;-76
2021/09/16 02:29:10;;;;;;;1.50;1.40;;;;;;;5.96;69.02;98451.44;5020613;28;20094;-76
2021/09/16 02:31:36;;;;;;;2.55;1.58;;;;;;;5.87;69.24;98452.13;5037049;28;20182;-76
2021/09/16 02:34:02;;;;;;;1.50;1.40;;;;;;;5.89;69.42;98457.28;5020164;28;20131;-75
2021/09/16 02:36:28;;;;;;;3.33;1.70;;;;;;;5.87;69.42;98459.19;5037204;28;20043;-76
2021/09/16 02:38:54;;;;;;;1.98;1.60;;;;;;;5.85;69.17;98446.91;5020203;28;20139;-75
2021/09/16 02:41:21;;;;;;;3.88;1.58;;;;;;;5.99;68.85;98463.63;5070525;28;20041;-75
2021/09/16 02:43:47;;;;;;;4.75;1.63;;;;;;;6.00;68.75;98471.47;5053493;28;20467;-76
2021/09/16 02:46:13;;;;;;;1.67;1.58;;;;;;;6.02;68.62;98469.56;5053176;28;20052;-75
2021/09/16 02:48:39;;;;;;;1.35;1.25;;;;;;;6.07;68.19;98471.84;5070444;28;20068;-75
2021/09/16 02:51:05;;;;;;;2.65;1.50;;;;;;;6.10;68.07;98471.63;5036803;28;20118;-75
2021/09/16 02:53:31;;;;;;;1.15;1.15;;;;;;;6.02;68.70;98466.06;5053333;28;20038;-75
2021/09/16 02:55:58;;;;;;;1.55;1.40;;;;;;;5.91;68.52;98455.38;5053320;28;20048;-75
2021/09/16 02:58:24;;;;;;;2.63;1.30;;;;;;;6.17;68.22;98472.00;5057983;28;20041;-76
2021/09/16 03:00:50;;;;;;;2.60;1.40;;;;;;;6.28;67.87;98472.03;5037142;28;20095;-75
2021/09/16 03:03:16;;;;;;;1.40;1.30;;;;;;;6.34;67.66;98474.22;5036685;28;20041;-76
2021/09/16 03:05:42;;;;;;;4.32;1.40;;;;;;;6.46;67.24;98475.06;5053076;28;20052;-76
2021/09/16 03:08:08;;;;;;;3.22;1.33;;;;;;;6.42;67.26;98471.81;5003381;28;20131;-75
2021/09/16 03:10:34;;;;;;;3.33;1.63;;;;;;;6.37;67.45;98473.16;5053205;28;20540;-75
2021/09/16 03:13:00;;;;;;;1.40;1.23;;;;;;;6.30;67.69;98478.91;5003733;28;20049;-76
2021/09/16 03:15:26;;;;;;;2.13;1.50;;;;;;;6.32;67.90;98492.09;5036693;28;20378;-78
2021/09/16 03:17:52;;;;;;;2.20;2.00;;;;;;;6.30;67.90;98478.06;5036673;28;20048;-77
2021/09/16 03:20:19;;;;;;;2.58;1.90;;;;;;;6.16;68.24;98487.06;5003885;28;20041;-75
2021/09/16 03:22:44;;;;;;;2.80;1.83;;;;;;;6.31;67.92;98482.41;5066533;28;20076;-75
2021/09/16 03:25:11;;;;;;;3.67;1.85;;;;;;;6.40;67.74;98468.44;5039478;28;20052;-77
2021/09/16 03:27:37;;;;;;;1.65;1.55;;;;;;;6.49;67.67;98467.72;5072721;28;20048;-74
2021/09/16 03:30:07;;;;;;;2.08;1.90;;;;;;;6.68;67.48;98482.22;5073786;28;20045;-77
2021/09/16 03:32:32;;;;;;;4.32;1.63;;;;;;;6.74;67.06;98484.44;5056402;28;20131;-75
2021/09/16 03:34:58;;;;;;;1.70;1.60;;;;;;;6.88;67.15;98484.16;5055845;28;20136;-75
2021/09/16 03:37:24;;;;;;;3.33;1.20;;;;;;;7.00;66.97;98490.34;5072187;28;20052;-77
2021/09/16 03:39:50;;;;;;;3.38;1.67;;;;;;;6.94;66.80;98499.63;5055548;28;20091;-74
2021/09/16 03:42:16;;;;;;;1.58;1.48;;;;;;;6.91;66.99;98488.41;5039343;28;20134;-77
2021/09/16 03:44:42;;;;;;;1.20;1.20;;;;;;;6.98;66.86;98498.41;5021388;28;20095;-75
2021/09/16 03:47:08;;;;;;;3.53;1.50;;;;;;;6.97;67.19;98501.22;5039041;28;20082;-76
2021/09/16 03:49:38;;;;;;;1.38;1.20;;;;;;;7.02;67.23;98505.19;5055895;28;20568;-75
2021/09/16 03:52:05;;;;;;;2.83;1.40;;;;;;;7.20;67.16;98505.53;5072363;28;20071;-74
2021/09/16 03:54:31;;;;;;;1.15;1.08;;;;;;;7.34;66.63;98507.13;5072182;28;20040;-75
2021/09/16 03:56:57;;;;;;;2.35;1.25;;;;;;;7.33;66.16;98493.94;5054963;28;20563;-78
2021/09/16 03:59:23;;;;;;;4.65;1.30;;;;;;;7.42;65.98;98504.69;5038474;28;20033;-78
2021/09/16 04:01:49;;;;;;;1.33;1.23;;;;;;;7.61;65.74;98505.84;5064064;28;20518;-76
2021/09/16 04:04:15;;;;;;;2.45;1.27;;;;;;;7.77;65.55;98515.09;5038881;28;20052;-75
2021/09/16 04:06:41;;;;;;;1.08;1.08;;;;;;;7.82;65.30;98517.38;5027919;28;20068;-76
2021/09/16 04:09:07;;;;;;;3.15;1.50;;;;;;;8.02;64.97;98499.78;5035676;28;20041;-77
2021/09/16 04:11:33;;;;;;;1.83;1.13;;;;;;;8.01;64.23;98501.63;5018729;28;20072;-76
2021/09/16 04:13:58;;;;;;;3.72;1.20;;;;;;;7.92;64.27;98513.00;5052297;28;20052;-76
2021/09/16 04:16:24;;;;;;;2.70;1.30;;;;;;;7.99;64.42;98511.53;5035677;28;20128;-77
2021/09/16 04:18:50;;;;;;;1.20;1.20;;;;;;;8.13;64.11;98512.22;5052314;28;20049;-76
2021/09/16 04:21:16;;;;;;;3.72;1.13;;;;;;;8.26;63.73;98511.03;5035823;28;20044;-74
2021/09/16 04:23:42;;;;;;;0.82;0.82;;;;;;;8.25;63.64;98498.72;5026148;28;20106;-76
2021/09/16 04:26:08;;;;;;;5.72;1.25;;;;;;;8.46;63.34;98509.41;5021561;28;20135;-76
2021/09/16 04:28:34;;;;;;;1.08;0.73;;;;;;;8.47;62.65;98512.94;5053674;28;20143;-76
2021/09/16 04:31:00;;;;;;;4.03;1.20;;;;;;;8.49;62.87;98519.78;5022146;28;20072;-75
2021/09/16 04:33:26;;;;;;;1.00;0.98;;;;;;;8.34;62.34;98506.91;5071635;28;20101;-77
2021/09/16 04:35:51;;;;;;;3.92;0.98;;;;;;;8.44;62.38;98503.38;5038770;28;20511;-74
2021/09/16 04:38:17;;;;;;;5.30;0.90;;;;;;;8.85;61.56;98527.47;5054895;28;20044;-76
2021/09/16 04:40:43;;;;;;;1.25;0.85;;;;;;;8.94;61.35;98522.16;5052917;28;20132;-78
2021/09/16 04:43:09;;;;;;;3.05;1.02;;;;;;;9.09;60.17;98521.81;5067767;28;20048;-76
2021/09/16 04:45:35;;;;;;;0.57;0.57;;;;;;;9.23;60.11;98542.78;5032486;28;20080;-75
2021/09/16 04:48:01;;;;;;;1.02;1.02;;;;;;;9.25;59.14;98527.50;4998261;28;20044;-78
2021/09/16 04:50:27;;;;;;;1.00;0.90;;;;;;;9.68;59.29;98521.03;4998672;28;20052;-75
2021/09/16 04:52:53;;;;;;;1.10;0.90;;;;;;;9.73;57.87;98516.13;5014269;28;20045;-75
2021/09/16 04:55:19;;;;;;;0.60;0.52;;;;;;;9.81;57.04;98516.28;5034698;28;20037;-76
2021/09/16 04:57:45;;;;;;;1.23;0.85;;;;;;;9.88;58.32;98520.09;5001451;28;20403;-75
2021/09/16 05:00:11;;;;;;;3.30;1.00;;;;;;;10.11;57.44;98522.50;5002207;28;20051;-78
2021/09/16 05:02:37;;;;;;;1.27;0.80;;;;;;;10.44;57.05;98522.09;4992407;28;20136;-77
2021/09/16 05:05:04;;;;;;;0.70;0.70;;;;;;;10.46;55.84;98532.66;4982190;28;20042;-76
2021/09/16 05:07:29;;;;;;;4.47;0.80;;;;;;;10.53;55.34;98520.41;4998377;28;20044;-77
2021/09/16 05:09:55;;;;;;;0.52;0.52;;;;;;;10.65;53.99;98537.97;4998001;28;20064;-77
2021/09/16 05:12:24;;;;;;;0.50;0.50;;;;;;;10.90;54.18;98531.16;5045996;28;20116;-78
2021/09/16 05:14:50;;;;;;;2.33;0.60;;;;;;;10.77;52.67;98548.50;4985744;28;20073;-78
2021/09/16 05:17:16;;;;;;;1.13;0.52;;;;;;;10.52;52.14;98553.44;4984758;28;20040;-77
2021/09/16 05:19:42;;;;;;;0.52;0.50;;;;;;;10.76;51.99;98539.66;4982156;28;20045;-78
2021/09/16 05:22:08;;;;;;;0.43;0.43;;;;;;;10.58;51.34;98542.22;4984859;28;20140;-79
2021/09/16 05:24:35;;;;;;;0.40;0.40;;;;;;;10.17;52.25;98529.94;5023239;28;20053;-78
2021/09/16 05:27:01;;;;;;;0.88;0.52;;;;;;;10.01;53.00;98521.66;4998808;28;20053;-77
2021/09/16 05:29:27;;;;;;;5.35;0.50;;;;;;;9.95;53.61;98523.88;4992963;28;20064;-76
2021/09/16 05:31:53;;;;;;;3.83;0.75;;;;;;;10.02;52.90;98539.34;4982579;28;20038;-75
2021/09/16 05:34:19;;;;;;;0.30;0.30;;;;;;;10.07;52.31;98547.78;4998661;28;20049;-76
2021/09/16 05:36:45;;;;;;;1.13;0.47;;;;;;;9.98;52.57;98528.13;5032508;28;20060;-76
2021/09/16 05:39:10;;;;;;;13.15;0.88;;;;;;;10.27;52.19;98554.88;4982612;28;20125;-74
2021/09/16 05:41:36;;;;;;;0.88;0.60;;;;;;;10.26;51.16;98542.47;4982932;28;20041;-77
2021/09/16 05:44:03;;;;;;;1.08;0.47;;;;;;;10.22;51.13;98551.72;5027038;28;20064;-76
2021/09/16 05:46:32;;;;;;;3.15;0.30;;;;;;;10.11;51.32;98535.84;5052883;28;20045;-76
2021/09/16 05:48:59;;;;;;;0.68;0.40;;;;;;;10.16;51.55;98541.63;5037690;28;20044;-76
2021/09/16 05:51:25;;;;;;;0.40;0.40;;;;;;;10.37;50.69;98550.34;5051780;28;20420;-76
2021/09/16 05:53:51;;;;;;;0.60;0.55;;;;;;;10.64;50.22;98543.44;5035246;28;20059;-78
2021/09/16 05:56:17;;;;;;;0.40;0.40;;;;;;;10.80;49.79;98538.38;5069031;28;20048;-76
2021/09/16 05:58:43;;;;;;;2.92;0.40;;;;;;;10.59;49.81;98562.59;5020371;28;20048;-76
2021/09/16 06:01:08;;;;;;;0.75;0.30;;;;;;;10.26;50.06;98558.50;5069819;28;20049;-75
2021/09/16 06:03:34;;;;;;;2.15;0.50;;;;;;;9.83;49.78;98562.38;5070755;28;20052;-75
2021/09/16 06:06:00;;;;;;;0.95;0.57;;;;;;;9.80;49.68;98551.97;5037895;28;20090;-77
2021/09/16 06:08:26;;;;;;;0.52;0.52;;;;;;;9.88;49.53;98548.59;5073587;28;20123;-75
2021/09/16 06:10:52;;;;;;;0.50;0.50;;;;;;;10.00;49.52;98557.34;5075215;28;20044;-75
2021/09/16 06:13:18;;;;;;;0.40;0.40;;;;;;;10.02;49.60;98550.88;5042574;28;20060;-77
2021/09/16 06:15:44;;;;;;;0.55;0.55;;;;;;;9.98;49.16;98577.00;5058420;28;20048;-76
2021/09/16 06:18:10;;;;;;;0.28;0.28;;;;;;;9.92;49.46;98537.50;5041823;28;20053;-75
2021/09/16 06:20:36;;;;;;;0.30;0.30;;;;;;;10.26;47.87;98579.88;5043138;28;20135;-75
2021/09/16 06:23:02;;;;;;;0.63;0.45;;;;;;;10.03;48.50;98573.91;5074253;28;20510;-76
2021/09/16 06:25:28;;;;;;;0.57;0.55;;;;;;;10.06;48.78;98556.78;5024099;28;20037;-75
2021/09/16 06:27:55;;;;;;;0.50;0.50;;;;;;;10.24;48.29;98563.13;5040914;28;20036;-76
2021/09/16 06:30:21;;;;;;;0.73;0.40;;;;;;;10.19;48.02;98568.03;5057504;28;20040;-76
2021/09/16 06:32:47;;;;;;;0.47;0.30;;;;;;;10.21;48.29;98550.06;5041481;28;20123;-76
2021/09/16 06:35:13;;;;;;;0.50;0.50;;;;;;;10.39;48.21;98564.44;5041128;28;20041;-74
2021/09/16 06:37:39;;;;;;;0.57;0.50;;;;;;;10.29;47.95;98536.88;5057413;28;20086;-75
2021/09/16 06:40:06;;;;;;;0.38;0.38;;;;;;;10.31;48.64;98532.25;5057252;28;20044;-76
2021/09/16 06:42:32;;;;;;;0.90;0.50;;;;;;;10.43;47.77;98533.78;5057100;28;20111;-75
2021/09/16 06:44:58;;;;;;;1.23;0.40;;;;;;;10.33;47.68;98540.94;5040214;28;20055;-76
2021/09/16 06:47:24;;;;;;;0.30;0.30;;;;;;;10.56;48.02;98541.50;5073423;28;20456;-75
2021/09/16 06:49:50;;;;;;;1.40;0.45;;;;;;;10.84;46.86;98546.94;5040239;28;20045;-76
2021/09/16 06:52:16;;;;;;;3.53;0.70;;;;;;;10.96;46.88;98550.31;5073677;28;20085;-77
2021/09/16 06:54:43;;;;;;;0.85;0.40;;;;;;;10.79;46.46;98555.38;5040250;28;20048;-78
2021/09/16 06:57:09;;;;;;;0.40;0.40;;;;;;;10.42;47.88;98537.44;5056822;28;20127;-78
2021/09/16 06:59:35;;;;;;;0.52;0.40;;;;;;;10.59;48.05;98535.03;5023456;28;20032;-76
2021/09/16 07:02:02;;;;;;;0.82;0.50;;;;;;;10.84;47.37;98542.44;5073271;28;20040;-76
2021/09/16 07:04:27;;;;;;;0.80;0.50;;;;;;;10.49;47.73;98534.19;5056627;28;20093;-77
2021/09/16 07:06:53;;;;;;;0.85;0.85;;;;;;;10.59;48.23;98537.69;5040122;28;20060;-76
2021/09/16 07:09:19;;;;;;;0.80;0.63;;;;;;;11.07;47.08;98545.63;5073269;28;20123;-77
2021/09/16 07:11:45;;;;;;;0.40;0.40;;;;;;;11.00;46.67;98538.31;5023467;28;20061;-77
2021/09/16 07:14:12;;;;;;;1.08;0.52;;;;;;;11.00;46.84;98557.88;5040642;28;20075;-76
2021/09/16 07:16:38;;;;;;;0.88;0.55;;;;;;;11.06;47.04;98541.28;5056401;28;20044;-76
2021/09/16 07:19:04;;;;;;;14.65;0.95;;;;;;;11.21;47.25;98549.66;5056867;28;20051;-76
2021/09/16 07:21:29;;;;;;;3.03;0.63;;;;;;;11.55;46.24;98563.34;5057046;28;20446;-77
2021/09/16 07:23:55;;;;;;;1.35;0.80;;;;;;;11.52;45.97;98574.31;5056317;28;20052;-77
2021/09/16 07:26:21;;;;;;;2.50;0.82;;;;;;;11.32;45.96;98551.28;5056870;28;20539;-77
2021/09/16 07:28:47;;;;;;;0.60;0.60;;;;;;;11.51;46.28;98563.75;5057195;28;20043;-77
2021/09/16 07:31:13;;;;;;;1.52;0.65;;;;;;;11.42;45.75;98558.28;5057298;28;20492;-75
2021/09/16 07:33:39;;;;;;;0.60;0.60;;;;;;;11.37;45.90;98573.97;5073676;28;20048;-77
2021/09/16 07:36:05;;;;;;;1.13;0.50;;;;;;;11.41;45.87;98571.84;5073212;28;20119;-77
2021/09/16 07:38:31;;;;;;;1.23;0.60;;;;;;;11.49;45.77;98573.78;5073149;28;20534;-77
2021/09/16 07:40:57;;;;;;;2.00;0.52;;;;;;;11.45;46.07;98575.91;5023090;28;20079;-77
2021/09/16 07:43:23;;;;;;;0.60;0.60;;;;;;;11.44;45.76;98576.91;5039680;28;20056;-77
2021/09/16 07:45:50;;;;;;;0.73;0.40;;;;;;;11.28;46.24;98582.00;5055917;28;20488;-78
2021/09/16 07:48:16;;;;;;;0.60;0.60;;;;;;;11.22;46.74;98567.41;5039875;28;20067;-76
2021/09/16 07:50:42;;;;;;;0.70;0.70;;;;;;;11.45;46.17;98588.44;5074025;28;20131;-77
2021/09/16 07:53:10;;;;;;;0.60;0.60;;;;;;;11.13;46.56;98568.25;5039237;28;20121;-75
2021/09/16 07:55:36;;;;;;;1.05;0.98;;;;;;;11.09;46.62;98583.75;5039607;28;20453;-77
2021/09/16 07:58:02;;;;;;;0.75;0.75;;;;;;;11.45;46.10;98573.22;5055966;28;20041;-76
2021/09/16 08:00:28;;;;;;;2.25;0.40;;;;;;;11.61;45.50;98567.22;5055749;28;20050;-77
2021/09/16 08:02:54;;;;;;;1.95;0.70;;;;;;;11.97;45.15;98578.06;5072343;28;20128;-77
2021/09/16 08:05:20;;;;;;;2.58;0.70;;;;;;;12.32;43.99;98577.25;5073494;28;20048;-76
2021/09/16 08:07:46;;;;;;;7.55;1.63;;;;;;;12.16;43.97;98559.19;5022857;28;20036;-77
2021/09/16 08:10:12;;;;;;;0.85;0.38;;;;;;;12.43;43.32;98576.19;5038922;28;20044;-77
2021/09/16 08:12:38;;;;;;;0.45;0.45;;;;;;;12.19;42.90;98572.28;5022579;28;20037;-77
2021/09/16 08:15:05;;;;;;;0.50;0.50;;;;;;;12.22;42.74;98581.84;5071975;28;20464;-75
2021/09/16 08:17:31;;;;;;;0.57;0.57;;;;;;;12.04;43.31;98566.63;5055520;28;20415;-77
2021/09/16 08:19:57;;;;;;;1.67;0.93;;;;;;;11.83;43.48;98569.53;5038656;28;20052;-76
2021/09/16 08:22:23;;;;;;;0.50;0.50;;;;;;;11.85;42.98;98575.59;5038947;28;20032;-76
2021/09/16 08:24:49;;;;;;;0.50;0.50;;;;;;;11.63;43.58;98589.34;5022286;28;20047;-76
2021/09/16 08:27:15;;;;;;;0.40;0.40;;;;;;;11.74;43.93;98578.44;5022164;28;20507;-76
2021/09/16 08:29:41;;;;;;;0.50;0.50;;;;;;;12.02;43.22;98581.13;5039181;28;20083;-77
2021/09/16 08:32:07;;;;;;;0.50;0.50;;;;;;;12.12;42.37;98577.41;5071373;28;20040;-77
2021/09/16 08:34:35;;;;;;;2.42;0.52;;;;;;;12.07;42.85;98578.84;5071865;28;20049;-76
2021/09/16 08:37:02;;;;;;;1.85;0.55;;;;;;;11.88;42.19;98594.06;5039434;28;20052;-76
2021/09/16 08:39:28;;;;;;;2.05;0.50;;;;;;;11.83;42.03;98593.66;5054851;28;20046;-77
2021/09/16 08:41:54;;;;;;;0.40;0.40;;;;;;;11.84;42.78;98573.91;5055562;28;20047;-77
2021/09/16 08:44:20;;;;;;;4.22;0.80;;;;;;;11.71;42.92;98578.75;5038201;28;20056;-76
2021/09/16 08:46:46;;;;;;;4.20;0.80;;;;;;;11.84;42.99;98578.41;5055053;28;20510;-79
2021/09/16 08:49:12;;;;;;;0.70;0.70;;;;;;;12.00;42.45;98567.03;5038982;28;20048;-76
2021/09/16 08:51:39;;;;;;;1.23;0.60;;;;;;;12.37;41.06;98567.78;5038920;28;20392;-78
2021/09/16 08:54:07;;;;;;;0.30;0.30;;;;;;;12.38;41.43;98550.69;5072182;28;20052;-78
2021/09/16 08:56:33;;;;;;;1.85;0.35;;;;;;;12.86;40.53;98573.56;5038860;28;20052;-78
2021/09/16 08:59:05;;;;;;;0.50;0.50;;;;;;;13.19;39.91;98581.81;5038775;28;20132;-79
2021/09/16 09:01:31;;;;;;;0.95;0.32;;;;;;;13.49;39.12;98555.53;5038367;28;20543;-78
2021/09/16 09:03:57;;;;;;;2.50;0.30;;;;;;;13.60;39.09;98544.50;5037960;28;20040;-77
2021/09/16 09:06:42;;;;;;;2.05;0.50;;;;;;;14.01;37.74;98566.97;5054496;28;20037;-77
2021/09/16 09:09:20;;;;;;;0.77;0.50;;;;;;;14.02;37.68;98528.34;5056162;28;20415;-77
2021/09/16 09:12:02;;;;;;;0.40;0.40;;;;;;;13.96;37.55;98573.84;5039449;28;20041;-76
2021/09/16 09:14:46;;;;;;;0.28;0.28;;;;;;;13.59;37.96;98572.34;5005999;28;20127;-78
2021/09/16 09:17:22;;;;;;;0.63;0.63;;;;;;;13.64;38.08;98553.91;5054879;28;20047;-79
2021/09/16 09:19:50;;;;;;;2.30;0.50;;;;;;;13.43;39.04;98569.59;5054511;28;20502;-77
2021/09/16 09:22:17;;;;;;;1.65;0.30;;;;;;;13.21;38.94;98569.09;5054722;28;20052;-76
2021/09/16 09:24:46;;;;;;;0.40;0.40;;;;;;;13.12;39.56;98559.31;5087910;28;20406;-76
2021/09/16 09:27:28;;;;;;;1.45;0.45;;;;;;;13.04;39.99;98557.41;5038067;28;20067;-77
2021/09/16 09:30:02;;;;;;;1.67;0.90;;;;;;;13.32;39.41;98555.44;5071198;28;20173;-77
2021/09/16 09:32:50;;;;;;;1.58;0.30;;;;;;;13.74;38.46;98565.38;5071405;28;20133;-76
2021/09/16 09:35:33;;;;;;;0.30;0.30;;;;;;;13.87;38.75;98545.25;5054476;28;20425;-76
2021/09/16 09:38:08;;;;;;;2.80;0.47;;;;;;;14.23;38.01;98549.38;5055009;28;20407;-75
2021/09/16 09:40:37;;;;;;;0.43;0.30;;;;;;;14.74;37.18;98547.44;5039522;28;20231;-78
2021/09/16 09:43:31;;;;;;;3.35;0.50;;;;;;;15.05;36.80;98544.06;5053727;28;20051;-78
2021/09/16 09:46:09;;;;;;;5.07;0.70;;;;;;;15.73;35.75;98550.78;5005527;28;20094;-76
2021/09/16 09:49:03;;;;;;;2.72;0.60;;;;;;;15.45;35.75;98545.78;4989628;28;20131;-77
2021/09/16 09:51:39;;;;;;;2.45;0.40;;;;;;;14.77;36.50;98549.78;5007777;28;20052;-78
2021/09/16 09:54:18;;;;;;;0.88;0.32;;;;;;;14.42;36.81;98571.59;4973684;28;20496;-82
2021/09/16 09:57:00;;;;;;;2.40;0.80;;;;;;;14.02;37.81;98562.44;4988681;28;20053;-78
2021/09/16 09:59:29;;;;;;;0.95;0.40;;;;;;;13.63;38.63;98551.41;5001466;28;20053;-80
2021/09/16 10:02:05;;;;;;;1.27;0.70;;;;;;;13.33;38.92;98561.66;5026308;28;20139;-78
2021/09/16 10:04:33;;;;;;;2.65;0.57;;;;;;;13.41;39.23;98558.16;4970352;28;20131;-78
2021/09/16 10:06:59;;;;;;;0.70;0.60;;;;;;;13.61;38.90;98575.72;5001695;28;20048;-77
2021/09/16 10:09:26;;;;;;;1.45;0.63;;;;;;;13.65;38.46;98555.59;4985084;28;20056;-77
2021/09/16 10:11:53;;;;;;;1.20;0.50;;;;;;;13.93;38.45;98563.44;4985475;28;20044;-76
2021/09/16 10:14:21;;;;;;;6.57;0.80;;;;;;;13.84;38.47;98559.84;4969851;28;20045;-77
2021/09/16 10:16:48;;;;;;;3.40;0.50;;;;;;;13.87;38.16;98558.69;4985594;28;20072;-78
2021/09/16 10:19:14;;;;;;;2.25;0.73;;;;;;;13.59;38.60;98567.00;4984865;28;20046;-79
2021/09/16 10:21:42;;;;;;;3.28;0.70;;;;;;;13.09;39.45;98555.13;5001495;28;20128;-78
2021/09/16 10:24:17;;;;;;;2.45;0.50;;;;;;;13.01;39.98;98562.25;4971823;28;20041;-77
2021/09/16 10:26:47;;;;;;;1.80;0.57;;;;;;;13.10;39.76;98561.31;4969851;28;20530;-78
2021/09/16 10:29:29;;;;;;;0.70;0.57;;;;;;;13.81;39.23;98563.72;4969846;28;20044;-78
2021/09/16 10:32:07;;;;;;;0.98;0.50;;;;;;;13.99;38.27;98563.63;5000424;28;20103;-78
2021/09/16 10:34:46;;;;;;;4.75;1.13;;;;;;;13.54;39.30;98574.66;5017830;28;20437;-78
2021/09/16 10:37:13;;;;;;;;;;;;;;;13.16;40.44;98579.44;5002384;28;20519;-76
2021/09/16 10:39:42;;;;;;;1.67;0.47;;;;;;;13.16;40.31;98565.19;5017592;28;20300;-79
2021/09/16 10:42:12;;;;;;;0.80;0.40;;;;;;;13.46;40.16;98555.84;4986088;28;20045;-78
2021/09/16 10:44:38;;;;;;;0.40;0.40;;;;;;;14.44;38.44;98553.44;5024441;28;20060;-77
2021/09/16 10:47:16;;;;;;;0.40;0.40;;;;;;;15.65;35.49;98562.44;5020105;28;20051;-78
2021/09/16 10:49:44;;;;;;;2.50;0.50;;;;;;;16.07;35.41;98550.44;5037185;28;20045;-77
2021/09/16 10:52:10;;;;;;;0.70;0.50;;;;;;;15.87;34.70;98573.44;5003963;28;20037;-77
2021/09/16 10:54:38;;;;;;;2.05;0.52;;;;;;;14.97;36.46;98579.03;5019371;28;20040;-77
2021/09/16 10:57:09;;;;;;;0.70;0.50;;;;;;;14.38;37.07;98556.81;5036592;28;20128;-76
2021/09/16 10:59:51;;;;;;;1.35;0.50;;;;;;;14.42;38.18;98552.78;5110843;27;20383;-77
2021/09/16 11:02:31;;;;;;;0.80;0.52;;;;;;;14.65;37.55;98556.50;5130427;27;20387;-76
2021/09/16 11:05:10;;;;;;;2.08;0.57;;;;;;;15.98;35.69;98548.78;5060854;27;1964302;-76
2021/09/16 11:07:39;;;;;;;3.27;0.80;;;;;;;16.48;34.78;98547.50;5108785;28;20545;-76
2021/09/16 11:10:15;;;;;;;2.83;0.82;;;;;;;17.05;32.74;98549.72;5075058;28;20289;-77
2021/09/16 11:12:51;;;;;;;0.63;0.60;;;;;;;18.12;32.76;98555.59;5109230;28;20052;-81
2021/09/16 11:15:30;;;;;;;2.35;0.57;;;;;;;18.90;30.22;98531.41;5074125;28;20044;-80
2021/09/16 11:18:03;;;;;;;0.98;0.70;;;;;;;18.81;30.25;98530.72;5087520;28;20036;-88
2021/09/16 11:20:42;;;;;;;0.68;0.68;;;;;;;19.21;30.67;98524.78;5111900;27;20372;-79
2021/09/16 11:23:21;;;;;;;3.35;0.75;;;;;;;19.55;29.23;98535.59;5112939;27;20384;-77
2021/09/16 11:25:59;;;;;;;0.55;0.55;;;;;;;19.52;28.46;98527.91;5090292;27;20394;-78
2021/09/16 11:28:37;;;;;;;5.50;0.80;;;;;;;19.89;28.75;98528.50;5111608;27;20387;-78
2021/09/16 11:31:18;;;;;;;1.10;0.60;;;;;;;21.11;27.60;98527.50;5083878;27;20398;-79
2021/09/16 11:34:11;;;;;;;2.05;0.52;;;;;;;20.62;26.87;98517.88;5111026;27;20376;-78
2021/09/16 11:37:11;;;;;;;3.72;0.90;;;;;;;21.17;26.62;98531.25;5151324;27;20328;-79
2021/09/16 11:40:02;;;;;;;6.03;0.60;;;;;;;22.09;25.56;98526.63;5110880;27;20379;-78